Reading, PA (19601)

12:03 AM EST on February 08, 2016 (GMT -0500)
Greenfields | | Change Station
CLOSE
Current Station
Personal Weather Station
Location: Reading, PA
Elevation: 250 ft
Nearby Weather Stations

Elev 250 ft 40.37 °N, 75.96 °W | Updated 17 seconds ago

Clear
Clear
32.4 °F
Feels Like 32 °F
N
0.0
Wind Variable Wind from North
Gusts 0.0 mph

Today
High -- | Low -- °F
--% Chance of Precip.
Yesterday
High -- | Low -- °F
Precip. -- in
Pressure 29.90 in
Visibility 10.0 miles
Clouds Clear
Windchill 32 °F
Dew Point 25 °F
Humidity 75%
Rainfall 0.00 in
Snow Depth Not available.
7:06 AM 5:30 PM
Waning Crescent, 0% visible
METAR KRDG 080454Z AUTO 35006KT 10SM CLR 01/M06 A2988 RMK AO2 SLP125 T00061056 400781067
Pressure 29.90 in
Visibility 10.0 miles
Clouds Clear
Windchill 32 °F
Dew Point 25 °F
Humidity 75%
Rainfall 0.00 in
Snow Depth Not available.
7:06 AM 5:30 PM
Waning Crescent, 0% visible
METAR KRDG 080454Z AUTO 35006KT 10SM CLR 01/M06 A2988 RMK AO2 SLP125 T00061056 400781067

10-Day Weather Forecast

Almanac

Astronomy

Feb. 08, 2016 Rise Set
Actual Time
Civil Twilight
Nautical Twilight
Astronomical Twilight
Moon
Length of Visible Light
Length of Day
Tomorrow will be .
, % of the Moon is Illuminated

Today's Extremes

State Highs State Lows

Community

WunderPhotos

Upload Photos

1,891,382 photos uploaded!

WunderBlog® & News

Nearby

Air Quality

  Air Quality AQ Index Pollutant
Not available.

Snow Depth

Station Depth Elevation

Earthquake Activity

City Distance Mag. Time & Date
Minimum magnitude displayed is 2.5.

Coastal Water Temperatures

Place Temperature

Stations

Nearby Weather Stations

Station Location Temp. Windchill Dew Point Humidity Wind Precip. Elev Updated Type
                   

Watches & Warnings

There are currently no watches in effect.